createdAt,value
2018-03-11T00:02:10.707Z,98998.06
2018-03-11T00:04:39.056Z,98992.61
2018-03-11T00:07:07.476Z,99002.23
2018-03-11T00:09:35.870Z,99001.71
2018-03-11T00:12:04.210Z,98999.69
2018-03-11T00:14:32.549Z,99005.21
2018-03-11T00:17:00.939Z,99004.09
2018-03-11T00:19:29.268Z,98996.31
2018-03-11T00:21:57.580Z,98999.81
2018-03-11T00:24:25.914Z,98996.00
2018-03-11T00:26:54.519Z,98997.02
2018-03-11T00:29:22.858Z,98994.83
2018-03-11T00:31:51.219Z,98991.72
2018-03-11T00:34:19.564Z,98993.69
2018-03-11T00:36:47.886Z,98986.38
2018-03-11T00:39:20.236Z,98985.92
2018-03-11T00:41:48.553Z,98985.14
2018-03-11T00:44:16.940Z,98981.35
2018-03-11T00:46:50.891Z,98982.95
2018-03-11T00:49:19.218Z,98980.34
2018-03-11T00:51:47.542Z,98975.05
2018-03-11T00:54:16.917Z,98972.83
2018-03-11T00:56:45.232Z,98978.58
2018-03-11T00:59:13.561Z,98965.05
2018-03-11T01:01:41.932Z,98968.22
2018-03-11T01:04:10.344Z,98967.44
2018-03-11T01:06:38.701Z,98956.46
2018-03-11T01:09:07.038Z,98956.55
2018-03-11T01:11:35.353Z,98956.49
2018-03-11T01:14:03.697Z,98954.76
2018-03-11T01:16:32.019Z,98952.96
2018-03-11T01:19:00.357Z,98949.89
2018-03-11T01:21:28.754Z,98952.05
2018-03-11T01:23:57.105Z,98947.93
2018-03-11T01:26:25.428Z,98947.44
2018-03-11T01:28:53.766Z,98945.55
2018-03-11T01:31:22.119Z,98942.59
2018-03-11T01:33:50.442Z,98942.37
2018-03-11T01:36:18.774Z,98950.15
2018-03-11T01:38:47.122Z,98947.41
2018-03-11T01:41:15.486Z,98944.30
2018-03-11T01:43:44.116Z,98944.56
2018-03-11T01:46:12.453Z,98941.09
2018-03-11T01:48:40.786Z,98931.72
2018-03-11T01:51:09.123Z,98924.73
2018-03-11T01:53:37.488Z,98919.61
2018-03-11T01:56:06.174Z,98914.38
2018-03-11T01:58:34.493Z,98917.58
2018-03-11T02:01:03.577Z,98917.75
2018-03-11T02:03:31.912Z,98920.27
2018-03-11T02:06:00.253Z,98916.87
2018-03-11T02:08:28.602Z,98918.07
2018-03-11T02:10:56.934Z,98924.27
2018-03-11T02:13:25.282Z,98921.72
2018-03-11T02:15:53.614Z,98921.49
2018-03-11T02:18:22.025Z,98917.47
2018-03-11T02:20:50.414Z,98919.67
2018-03-11T02:23:18.740Z,98916.34
2018-03-11T02:25:47.098Z,98905.97
2018-03-11T02:28:15.425Z,98902.77
2018-03-11T02:30:43.763Z,98895.13
2018-03-11T02:33:12.101Z,98886.86
2018-03-11T02:35:40.482Z,98878.18
2018-03-11T02:38:08.964Z,98876.59
2018-03-11T02:40:37.294Z,98879.49
2018-03-11T02:43:05.639Z,98878.29
2018-03-11T02:45:33.970Z,98869.15
2018-03-11T02:48:02.297Z,98873.66
2018-03-11T02:50:30.628Z,98874.83
2018-03-11T02:52:58.962Z,98877.99
2018-03-11T02:55:27.332Z,98875.55
2018-03-11T02:57:55.703Z,98867.81
2018-03-11T03:00:24.023Z,98872.22
2018-03-11T03:02:52.890Z,98869.64
2018-03-11T03:05:21.217Z,98862.61
2018-03-11T03:07:49.573Z,98864.28
2018-03-11T03:10:17.895Z,98859.71
2018-03-11T03:12:46.229Z,98855.95
2018-03-11T03:15:14.548Z,98872.59
2018-03-11T03:17:42.894Z,98856.84
2018-03-11T03:20:11.214Z,98862.97
2018-03-11T03:22:39.557Z,98854.95
2018-03-11T03:25:07.877Z,98853.95
2018-03-11T03:27:36.212Z,98857.11
2018-03-11T03:30:04.543Z,98865.89
2018-03-11T03:32:32.864Z,98846.48
2018-03-11T03:35:01.194Z,98847.47
2018-03-11T03:37:29.513Z,98847.92
2018-03-11T03:39:57.850Z,98848.66
2018-03-11T03:42:26.203Z,98842.95
2018-03-11T03:44:54.535Z,98842.73
2018-03-11T03:47:22.924Z,98842.40
2018-03-11T03:49:51.316Z,98847.76
2018-03-11T03:52:19.711Z,98841.62
2018-03-11T03:54:48.049Z,98836.56
2018-03-11T03:57:16.428Z,98836.38
2018-03-11T03:59:44.752Z,98831.80
2018-03-11T04:02:13.181Z,98833.14
2018-03-11T04:04:41.515Z,98835.70
2018-03-11T04:07:09.954Z,98831.64
2018-03-11T04:09:38.488Z,98827.51
2018-03-11T04:12:06.784Z,98826.75
2018-03-11T04:14:35.118Z,98825.78
2018-03-11T04:17:03.436Z,98822.31
2018-03-11T04:19:31.770Z,98828.22
2018-03-11T04:22:00.125Z,98816.48
2018-03-11T04:24:29.229Z,98810.59
2018-03-11T04:26:57.932Z,98812.80
2018-03-11T04:29:26.309Z,98800.95
2018-03-11T04:31:54.661Z,98799.09
2018-03-11T04:34:22.992Z,98804.02
2018-03-11T04:36:51.335Z,98799.44
2018-03-11T04:39:19.644Z,98787.77
2018-03-11T04:41:47.985Z,98789.91
2018-03-11T04:44:16.933Z,98790.77
2018-03-11T04:46:45.262Z,98785.04
2018-03-11T04:49:13.571Z,98787.78
2018-03-11T04:51:41.926Z,98788.05
2018-03-11T04:54:10.235Z,98784.02
2018-03-11T04:56:38.559Z,98787.16
2018-03-11T04:59:07.169Z,98792.48
2018-03-11T05:01:35.496Z,98789.37
2018-03-11T05:04:03.816Z,98786.59
2018-03-11T05:06:32.150Z,98788.45
2018-03-11T05:09:00.549Z,98777.39
2018-03-11T05:11:28.885Z,98776.58
2018-03-11T05:13:57.214Z,98780.88
2018-03-11T05:16:25.819Z,98776.34
2018-03-11T05:18:54.264Z,98774.94
2018-03-11T05:21:22.595Z,98772.88
2018-03-11T05:23:51.521Z,98776.50
2018-03-11T05:26:19.854Z,98782.34
2018-03-11T05:28:48.298Z,98781.42
2018-03-11T05:31:17.512Z,98778.32
2018-03-11T05:33:45.900Z,98787.23
2018-03-11T05:36:14.289Z,98784.56
2018-03-11T05:38:42.628Z,98783.05
2018-03-11T05:41:10.952Z,98780.22
2018-03-11T05:43:39.361Z,98786.14
2018-03-11T05:46:07.698Z,98791.66
2018-03-11T05:48:36.020Z,98793.25
2018-03-11T05:51:04.438Z,98788.91
2018-03-11T05:53:32.827Z,98789.55
2018-03-11T05:56:01.163Z,98789.95
2018-03-11T05:58:29.489Z,98792.53
2018-03-11T06:00:57.824Z,98796.64
2018-03-11T06:03:26.147Z,98794.59
2018-03-11T06:05:54.493Z,98792.23
2018-03-11T06:08:22.894Z,98787.20
2018-03-11T06:10:51.223Z,98783.98
2018-03-11T06:13:19.715Z,98783.09
2018-03-11T06:15:48.035Z,98781.52
2018-03-11T06:18:16.362Z,98782.88
2018-03-11T06:20:44.694Z,98780.20
2018-03-11T06:23:13.108Z,98773.17
2018-03-11T06:25:41.518Z,98766.25
2018-03-11T06:28:09.874Z,98766.80
2018-03-11T06:30:38.228Z,98765.18
2018-03-11T06:33:07.093Z,98769.59
2018-03-11T06:35:35.441Z,98773.53
2018-03-11T06:38:03.776Z,98766.77
2018-03-11T06:40:33.231Z,98764.20
2018-03-11T06:43:01.570Z,98771.05
2018-03-11T06:45:29.900Z,98771.44
2018-03-11T06:47:58.264Z,98770.58
2018-03-11T06:50:26.731Z,98766.00
2018-03-11T06:52:55.169Z,98770.20
2018-03-11T06:55:23.686Z,98769.64
2018-03-11T06:57:52.071Z,98770.80
2018-03-11T07:00:20.424Z,98768.22
2018-03-11T07:02:49.848Z,98769.31
2018-03-11T07:05:18.182Z,98765.22
2018-03-11T07:07:46.706Z,98755.22
2018-03-11T07:10:15.143Z,98748.58
2018-03-11T07:12:43.481Z,98752.23
2018-03-11T07:15:11.811Z,98749.79
2018-03-11T07:17:40.142Z,98755.12
2018-03-11T07:20:10.184Z,98744.71
2018-03-11T07:22:38.786Z,98744.63
2018-03-11T07:25:07.197Z,98735.63
2018-03-11T07:27:35.515Z,98734.89
2018-03-11T07:30:03.882Z,98734.25
2018-03-11T07:32:32.225Z,98735.95
2018-03-11T07:35:00.559Z,98739.20
2018-03-11T07:37:28.915Z,98735.37
2018-03-11T07:39:57.217Z,98739.06
2018-03-11T07:42:25.553Z,98733.58
2018-03-11T07:44:53.904Z,98733.66
2018-03-11T07:47:23.090Z,98733.67
2018-03-11T07:49:52.142Z,98739.62
2018-03-11T07:52:20.491Z,98738.84
2018-03-11T07:54:48.818Z,98742.20
2018-03-11T07:57:17.133Z,98739.23
2018-03-11T07:59:45.455Z,98736.11
2018-03-11T08:02:13.818Z,98735.98
2018-03-11T08:04:42.176Z,98728.09
2018-03-11T08:07:10.569Z,98726.02
2018-03-11T08:09:38.933Z,98723.36
2018-03-11T08:12:07.250Z,98719.04
2018-03-11T08:14:35.622Z,98719.08
2018-03-11T08:17:03.942Z,98711.69
2018-03-11T08:19:32.303Z,98712.84
2018-03-11T08:22:00.709Z,98713.30
2018-03-11T08:24:29.113Z,98714.27
2018-03-11T08:26:57.444Z,98719.81
2018-03-11T08:29:25.834Z,98708.94
2018-03-11T08:31:54.277Z,98706.82
2018-03-11T08:34:22.681Z,98677.81
2018-03-11T08:36:51.072Z,98684.09
2018-03-11T08:39:19.413Z,98677.48
2018-03-11T08:41:47.745Z,98672.15
2018-03-11T08:44:16.106Z,98670.29
2018-03-11T08:46:44.520Z,98668.89
2018-03-11T08:49:12.980Z,98667.50
2018-03-11T08:51:41.317Z,98679.08
2018-03-11T08:54:09.659Z,98683.65
2018-03-11T08:56:37.978Z,98671.70
2018-03-11T08:59:06.345Z,98662.56
2018-03-11T09:01:34.659Z,98656.95
2018-03-11T09:04:02.994Z,98669.23
2018-03-11T09:06:31.365Z,98652.08
2018-03-11T09:08:59.789Z,98657.03
2018-03-11T09:11:28.109Z,98642.31
2018-03-11T09:13:56.435Z,98636.13
2018-03-11T09:16:24.764Z,98644.78
2018-03-11T09:18:53.138Z,98641.60
2018-03-11T09:21:21.511Z,98646.30
2018-03-11T09:23:50.408Z,98650.06
2018-03-11T09:26:18.799Z,98645.89
2018-03-11T09:28:47.171Z,98637.47
2018-03-11T09:31:15.502Z,98629.67
2018-03-11T09:33:43.862Z,98624.41
2018-03-11T09:36:12.558Z,98620.70
2018-03-11T09:38:40.964Z,98619.41
2018-03-11T09:41:09.268Z,98608.97
2018-03-11T09:43:37.592Z,98614.60
2018-03-11T09:46:06.456Z,98625.44
2018-03-11T09:48:34.774Z,98628.23
2018-03-11T09:51:03.116Z,98626.24
2018-03-11T09:53:31.430Z,98614.19
2018-03-11T09:55:59.911Z,98613.59
2018-03-11T09:58:28.277Z,98627.55
2018-03-11T10:00:56.682Z,98612.18
2018-03-11T10:03:25.068Z,98612.20
2018-03-11T10:05:53.427Z,98611.16
2018-03-11T10:08:21.742Z,98612.95
2018-03-11T10:10:50.345Z,98612.59
2018-03-11T10:13:18.654Z,98611.23
2018-03-11T10:15:47.030Z,98609.41
2018-03-11T10:18:15.381Z,98621.63
2018-03-11T10:20:43.816Z,98625.34
2018-03-11T10:23:12.248Z,98617.66
2018-03-11T10:25:40.591Z,98618.53
2018-03-11T10:28:08.980Z,98612.66
2018-03-11T10:30:37.318Z,98624.94
2018-03-11T10:33:05.638Z,98605.73
2018-03-11T10:35:34.060Z,98599.80
2018-03-11T10:38:02.451Z,98581.33
2018-03-11T10:40:30.830Z,98586.13
2018-03-11T10:42:59.185Z,98585.60
2018-03-11T10:45:27.494Z,98581.02
2018-03-11T10:47:55.895Z,98587.16
2018-03-11T10:50:24.294Z,98590.53
2018-03-11T10:52:52.705Z,98590.66
2018-03-11T10:55:21.088Z,98584.61
2018-03-11T10:57:49.496Z,98585.64
2018-03-11T11:00:17.801Z,98573.95
2018-03-11T11:02:46.125Z,98565.56
2018-03-11T11:05:14.470Z,98557.09
2018-03-11T11:07:42.794Z,98551.04
2018-03-11T11:10:13.298Z,98553.75
2018-03-11T11:12:41.659Z,98547.06
2018-03-11T11:15:09.964Z,98544.48
2018-03-11T11:17:38.300Z,98525.73
2018-03-11T11:20:06.615Z,98523.56
2018-03-11T11:22:34.955Z,98517.76
2018-03-11T11:25:03.280Z,98508.95
2018-03-11T11:27:31.600Z,98522.41
2018-03-11T11:29:59.927Z,98517.73
2018-03-11T11:32:28.280Z,98511.12
2018-03-11T11:34:56.595Z,98512.38
2018-03-11T11:37:24.974Z,98514.41
2018-03-11T11:39:53.284Z,98503.08
2018-03-11T11:42:21.610Z,98511.97
2018-03-11T11:44:50.147Z,98512.20
2018-03-11T11:47:18.752Z,98506.84
2018-03-11T11:49:47.135Z,98498.48
2018-03-11T11:52:15.457Z,98490.61
2018-03-11T11:54:43.785Z,98486.32
2018-03-11T11:57:12.099Z,98478.55
2018-03-11T11:59:41.076Z,98469.02
2018-03-11T12:02:09.444Z,98458.78
2018-03-11T12:04:38.656Z,98447.73
2018-03-11T12:07:07.048Z,98445.98
2018-03-11T12:09:35.368Z,98428.20
2018-03-11T12:12:03.773Z,98414.38
2018-03-11T12:14:32.185Z,98410.85
2018-03-11T12:17:00.509Z,98414.28
2018-03-11T12:19:28.842Z,98400.25
2018-03-11T12:21:57.144Z,98400.09
2018-03-11T12:24:25.497Z,98384.05
2018-03-11T12:26:53.796Z,98370.42
2018-03-11T12:29:22.125Z,98373.61
2018-03-11T12:31:50.507Z,98369.86
2018-03-11T12:34:18.845Z,98358.48
2018-03-11T12:36:47.167Z,98353.84
2018-03-11T12:39:15.570Z,98347.16
2018-03-11T12:41:43.957Z,98356.18
2018-03-11T12:44:12.652Z,98356.46
2018-03-11T12:46:41.062Z,98345.83
2018-03-11T12:49:09.439Z,98345.49
2018-03-11T12:51:37.769Z,98331.69
2018-03-11T12:54:06.147Z,98341.31
2018-03-11T12:56:34.471Z,98338.34
2018-03-11T12:59:02.781Z,98339.16
2018-03-11T13:01:31.205Z,98336.66
2018-03-11T13:03:59.587Z,98342.28
2018-03-11T13:06:27.909Z,98341.48
2018-03-11T13:08:56.241Z,98349.91
2018-03-11T13:11:24.569Z,98340.06
2018-03-11T13:13:52.883Z,98352.64
2018-03-11T13:16:21.221Z,98345.38
2018-03-11T13:18:49.531Z,98349.47
2018-03-11T13:21:17.866Z,98350.88
2018-03-11T13:23:46.180Z,98353.55
2018-03-11T13:26:14.521Z,98350.63
2018-03-11T13:28:52.934Z,98352.78
2018-03-11T13:31:21.329Z,98348.29
2018-03-11T13:34:01.490Z,98343.16
2018-03-11T13:36:29.823Z,98344.20
2018-03-11T13:39:10.145Z,98335.45
2018-03-11T13:41:38.463Z,98330.86
2018-03-11T13:44:06.785Z,98322.89
2018-03-11T13:46:46.984Z,98330.03
2018-03-11T13:49:15.277Z,98315.84
2018-03-11T13:51:55.437Z,98315.64
2018-03-11T13:54:24.380Z,98312.77
2018-03-11T13:57:04.532Z,98308.97
2018-03-11T13:59:32.870Z,98307.37
2018-03-11T14:02:01.300Z,98305.72
2018-03-11T14:04:29.634Z,98306.05
2018-03-11T14:06:57.946Z,98303.53
2018-03-11T14:09:26.269Z,98299.10
2018-03-11T14:11:54.590Z,98294.04
2018-03-11T14:14:22.936Z,98295.63
2018-03-11T14:16:51.270Z,98297.75
2018-03-11T14:19:19.835Z,98301.22
2018-03-11T14:21:48.140Z,98303.69
2018-03-11T14:24:16.497Z,98298.34
2018-03-11T14:26:44.930Z,98286.64
2018-03-11T14:29:13.237Z,98284.59
2018-03-11T14:31:41.591Z,98281.81
2018-03-11T14:34:09.913Z,98283.12
2018-03-11T14:36:38.264Z,98273.79
2018-03-11T14:39:06.583Z,98284.58
2018-03-11T14:41:34.907Z,98292.19
2018-03-11T14:44:03.227Z,98290.09
2018-03-11T14:46:31.550Z,98292.55
2018-03-11T14:48:59.894Z,98284.47
2018-03-11T14:51:28.229Z,98280.80
2018-03-11T14:53:56.536Z,98291.80
2018-03-11T14:56:24.971Z,98287.66
2018-03-11T14:58:53.312Z,98279.01
2018-03-11T15:01:21.671Z,98287.53
2018-03-11T15:03:50.004Z,98290.12
2018-03-11T15:06:18.398Z,98287.63
2018-03-11T15:08:46.704Z,98286.52
2018-03-11T15:11:15.056Z,98285.87
2018-03-11T15:13:43.382Z,98287.50
2018-03-11T15:16:12.129Z,98286.22
2018-03-11T15:18:40.539Z,98284.98
2018-03-11T15:21:08.900Z,98283.36
2018-03-11T15:23:37.314Z,98281.70
2018-03-11T15:26:05.638Z,98278.61
2018-03-11T15:28:33.973Z,98266.13
2018-03-11T15:31:02.315Z,98261.59
2018-03-11T15:33:30.732Z,98266.34
2018-03-11T15:35:59.016Z,98264.41
2018-03-11T15:38:27.351Z,98274.86
2018-03-11T15:40:55.741Z,98275.27
2018-03-11T15:43:24.102Z,98278.11
2018-03-11T15:45:52.437Z,98275.17
2018-03-11T15:48:20.790Z,98272.17
2018-03-11T15:50:49.129Z,98273.05
2018-03-11T15:53:17.472Z,98272.89
2018-03-11T15:55:45.829Z,98279.43
2018-03-11T15:58:14.158Z,98270.47
2018-03-11T16:00:42.497Z,98265.19
2018-03-11T16:03:10.847Z,98269.42
2018-03-11T16:05:39.183Z,98270.52
2018-03-11T16:08:07.508Z,98268.74
2018-03-11T16:10:35.833Z,98272.45
2018-03-11T16:13:04.188Z,98278.37
2018-03-11T16:15:32.512Z,98264.32
2018-03-11T16:18:00.862Z,98273.73
2018-03-11T16:20:29.223Z,98266.67
2018-03-11T16:22:57.528Z,98272.63
2018-03-11T16:25:25.847Z,98270.00
2018-03-11T16:27:54.245Z,98271.11
2018-03-11T16:30:22.578Z,98274.70
2018-03-11T16:32:50.930Z,98276.63
2018-03-11T16:35:19.282Z,98272.84
2018-03-11T16:37:47.605Z,98285.53
2018-03-11T16:40:15.938Z,98268.98
2018-03-11T16:42:44.285Z,98268.27
2018-03-11T16:45:13.052Z,98270.31
2018-03-11T16:47:41.374Z,98264.82
2018-03-11T16:50:09.715Z,98262.27
2018-03-11T16:52:38.078Z,98256.74
2018-03-11T16:55:06.406Z,98265.27
2018-03-11T16:57:34.726Z,98259.16
2018-03-11T17:00:03.060Z,98259.26
2018-03-11T17:02:31.385Z,98263.66
2018-03-11T17:04:59.718Z,98252.90
2018-03-11T17:07:28.051Z,98257.81
2018-03-11T17:09:56.386Z,98255.08
2018-03-11T17:12:24.719Z,98245.30
2018-03-11T17:14:53.079Z,98255.28
2018-03-11T17:17:21.540Z,98247.86
2018-03-11T17:19:50.577Z,98242.80
2018-03-11T17:22:18.985Z,98258.03
2018-03-11T17:24:47.365Z,98256.98
2018-03-11T17:27:15.688Z,98250.52
2018-03-11T17:29:44.064Z,98256.39
2018-03-11T17:32:12.402Z,98252.15
2018-03-11T17:34:40.846Z,98259.56
2018-03-11T17:37:09.183Z,98252.62
2018-03-11T17:39:37.622Z,98259.55
2018-03-11T17:42:05.955Z,98261.85
2018-03-11T17:44:34.297Z,98254.70
2018-03-11T17:47:02.631Z,98261.19
2018-03-11T17:49:30.994Z,98259.90
2018-03-11T17:51:59.377Z,98263.95
2018-03-11T17:54:27.689Z,98261.96
2018-03-11T17:56:56.039Z,98262.86
2018-03-11T17:59:24.416Z,98261.80
2018-03-11T18:01:52.742Z,98265.64
2018-03-11T18:04:21.136Z,98259.97
2018-03-11T18:06:49.457Z,98259.72
2018-03-11T18:09:17.785Z,98262.78
2018-03-11T18:11:46.136Z,98260.75
2018-03-11T18:14:14.520Z,98261.22
2018-03-11T18:16:42.876Z,98258.30
2018-03-11T18:19:11.198Z,98262.09
2018-03-11T18:21:39.547Z,98272.04
2018-03-11T18:24:07.895Z,98266.34
2018-03-11T18:26:37.245Z,98269.80
2018-03-11T18:29:05.571Z,98273.95
2018-03-11T18:31:33.916Z,98271.58
2018-03-11T18:34:02.242Z,98269.97
2018-03-11T18:36:30.570Z,98274.47
2018-03-11T18:38:58.925Z,98267.88
2018-03-11T18:41:27.347Z,98273.88
2018-03-11T18:43:55.697Z,98272.17
2018-03-11T18:46:24.026Z,98260.75
2018-03-11T18:48:52.383Z,98269.40
2018-03-11T18:51:20.719Z,98268.23
2018-03-11T18:53:49.032Z,98263.70
2018-03-11T18:56:17.376Z,98260.19
2018-03-11T18:58:45.750Z,98258.20
2018-03-11T19:01:14.079Z,98254.37
2018-03-11T19:03:42.442Z,98255.87
2018-03-11T19:06:10.808Z,98251.91
2018-03-11T19:08:39.118Z,98244.87
2018-03-11T19:11:07.457Z,98251.91
2018-03-11T19:13:35.794Z,98248.08
2018-03-11T19:16:04.166Z,98248.77
2018-03-11T19:18:32.571Z,98247.27
2018-03-11T19:21:00.886Z,98247.31
2018-03-11T19:23:29.286Z,98250.73
2018-03-11T19:25:57.608Z,98244.59
2018-03-11T19:28:25.953Z,98247.44
2018-03-11T19:30:54.288Z,98247.05
2018-03-11T19:33:22.672Z,98246.70
2018-03-11T19:35:51.099Z,98234.94
2018-03-11T19:38:19.437Z,98228.16
2018-03-11T19:40:47.771Z,98222.02
2018-03-11T19:43:16.107Z,98226.92
2018-03-11T19:45:44.456Z,98221.34
2018-03-11T19:48:12.823Z,98223.32
2018-03-11T19:50:41.254Z,98217.50
2018-03-11T19:53:09.632Z,98212.97
2018-03-11T19:55:38.032Z,98215.06
2018-03-11T19:58:06.378Z,98209.17
2018-03-11T20:00:34.757Z,98205.59
2018-03-11T20:03:03.139Z,98198.48
2018-03-11T20:05:31.463Z,98204.50
2018-03-11T20:07:59.807Z,98203.78
2018-03-11T20:10:28.152Z,98205.04
2018-03-11T20:12:56.485Z,98206.09
2018-03-11T20:15:24.821Z,98200.89
2018-03-11T20:17:53.181Z,98209.82
2018-03-11T20:20:21.524Z,98204.11
2018-03-11T20:22:50.845Z,98194.98
2018-03-11T20:25:19.202Z,98198.14
2018-03-11T20:27:47.652Z,98195.63
2018-03-11T20:30:16.315Z,98200.67
2018-03-11T20:32:44.661Z,98200.73
2018-03-11T20:35:12.994Z,98203.20
2018-03-11T20:37:41.415Z,98201.53
2018-03-11T20:40:13.463Z,98201.17
2018-03-11T20:42:41.794Z,98205.67
2018-03-11T20:45:11.049Z,98197.05
2018-03-11T20:47:39.387Z,98194.30
2018-03-11T20:50:07.840Z,98193.59
2018-03-11T20:52:36.174Z,98194.42
2018-03-11T20:55:04.485Z,98192.41
2018-03-11T20:57:32.826Z,98188.87
2018-03-11T21:00:01.364Z,98180.54
2018-03-11T21:02:29.729Z,98184.63
2018-03-11T21:04:58.113Z,98180.33
2018-03-11T21:07:26.576Z,98171.70
2018-03-11T21:09:54.899Z,98176.12
2018-03-11T21:12:23.239Z,98173.40
2018-03-11T21:14:51.629Z,98174.50
2018-03-11T21:17:19.958Z,98167.06
2018-03-11T21:19:48.276Z,98161.63
2018-03-11T21:22:16.636Z,98165.20
2018-03-11T21:24:44.982Z,98162.84
2018-03-11T21:27:13.326Z,98161.36
2018-03-11T21:29:41.673Z,98162.08
2018-03-11T21:32:10.190Z,98159.50
2018-03-11T21:34:38.533Z,98161.05
2018-03-11T21:37:06.853Z,98162.97
2018-03-11T21:39:35.310Z,98155.48
2018-03-11T21:42:03.744Z,98142.72
2018-03-11T21:44:32.160Z,98159.62
2018-03-11T21:47:00.591Z,98149.28
2018-03-11T21:49:28.935Z,98151.39
2018-03-11T21:51:57.753Z,98147.86
2018-03-11T21:54:26.157Z,98143.67
2018-03-11T21:56:54.531Z,98135.27
2018-03-11T21:59:22.925Z,98130.65
2018-03-11T22:01:51.434Z,98122.86
2018-03-11T22:04:19.758Z,98118.23
2018-03-11T22:06:48.474Z,98120.11
2018-03-11T22:09:16.803Z,98116.59
2018-03-11T22:11:45.131Z,98105.31
2018-03-11T22:14:13.517Z,98100.66
2018-03-11T22:16:41.886Z,98100.59
2018-03-11T22:19:10.230Z,98094.63
2018-03-11T22:21:38.567Z,98100.05
2018-03-11T22:24:06.909Z,98104.53
2018-03-11T22:26:35.327Z,98103.02
2018-03-11T22:29:03.678Z,98102.95
2018-03-11T22:31:31.991Z,98103.08
2018-03-11T22:34:07.105Z,98087.09
2018-03-11T22:36:36.173Z,98098.04
2018-03-11T22:39:04.490Z,98098.92
2018-03-11T22:41:32.929Z,98094.80
2018-03-11T22:44:01.357Z,98097.25
2018-03-11T22:46:29.693Z,98089.83
2018-03-11T22:48:58.032Z,98086.30
2018-03-11T22:51:26.382Z,98087.76
2018-03-11T22:53:54.706Z,98080.10
2018-03-11T22:56:23.037Z,98081.89
2018-03-11T22:58:51.367Z,98075.95
2018-03-11T23:01:19.768Z,98070.94
2018-03-11T23:03:48.171Z,98072.99
2018-03-11T23:06:16.505Z,98064.17
2018-03-11T23:08:44.825Z,98063.96
2018-03-11T23:11:13.154Z,98057.23
2018-03-11T23:13:41.482Z,98050.19
2018-03-11T23:18:49.152Z,98048.45
2018-03-11T23:21:17.552Z,98041.21
2018-03-11T23:23:45.868Z,98040.24
2018-03-11T23:26:14.213Z,98033.48
2018-03-11T23:28:42.526Z,98036.72
2018-03-11T23:31:10.867Z,98037.35
2018-03-11T23:33:39.179Z,98038.69
2018-03-11T23:36:07.527Z,98034.93
2018-03-11T23:38:35.855Z,98027.56
2018-03-11T23:41:04.173Z,98027.23
2018-03-11T23:43:32.583Z,98021.88
2018-03-11T23:46:00.906Z,98011.75
2018-03-11T23:48:29.355Z,98005.48
2018-03-11T23:50:57.693Z,98005.06
2018-03-11T23:53:26.032Z,97995.94
2018-03-11T23:55:54.418Z,97992.59
2018-03-11T23:58:22.921Z,97992.82
